Airfield :







YOU CAN JOIN US ON...

 
LOGIN :

Register | Disclaimer

   EN    FR    IT 

 









Legend :    VFR   Marginal VFR   IFR   Intensive IFR   Very Intensive IFR
Visi :
Ceiling :
>= 8 km
>= 3000ft
5 to 8 km
1000 to 3000 ft
1500m to 5 km
500 to 1000 ft
800 to 1500m
200 to 500 ft
< 800m
< 200 ft
Symbols :   Thunderstorms  Fog  Heavy snow  Heavy precipitations  Wind > 20 kt






- Airport Elevation : 333 ft


KWVL - Waterville Robert Lafleur

CURRENT METAR :
  • 250056Z AUTO 00000KT 10SM SCT017 OVC023 18/17 A3015 RMK AO2 SLP236 T01830172

EXPIRED METARs :
  • 242356Z AUTO 18003KT 10SM OVC025 19/18 A3016 RMK AO2 SLP239 60002 T01890178 10206 20189 53001
  • 242330Z AUTO VRB03KT 10SM SCT012 SCT017 OVC075 19/18 A3016 RMK AO2
  • 242256Z AUTO 00000KT 10SM SCT010 BKN014 OVC033 20/18 A3016 RMK AO2 SLP237 T02000183
  • 242156Z AUTO VRB04KT 10SM SCT011 OVC035 20/19 A3016 RMK AO2 SLP238 T02000189
  • 242147Z AUTO VRB03KT 10SM SCT009 OVC037 20/19 A3016 RMK AO2
  • 242134Z AUTO VRB03KT 10SM BKN011 OVC037 20/19 A3016 RMK AO2
  • 242056Z AUTO VRB03KT 10SM OVC009 20/19 A3016 RMK AO2 CIG 007V013 SLP239 60002 T02000189 58010
  • 242043Z AUTO VRB04KT 10SM BKN009 OVC024 20/19 A3017 RMK AO2 CIG 007V013
  • 242005Z AUTO 00000KT 10SM FEW004 SCT007 OVC022 20/19 A3018 RMK AO2

TAF N/A
KZBW FIR / North America



MET'MAP, your aeronautical weather chart ! - Copyright ORBIFLY December 2007 - Disclaimer

ORBIFLY MET'MAP TEAM :

Programming & Development : Alexandra Zaïnal
Original concept : Baudouin d'Aumeries
Technical & hardware support : Manuel Goepfert
Assistance : Marc-Olivier Méhu




SOURCES & CREDITS :

   NOAA